Terminal Aerodrome Forecast
Issued by NWS

Home | Current Version | Previous Version | Text Only | Print | Product List | Glossary On
Versions: 1 2 3 4 5 6 7 8 9 10 11 12 13 14
000
FTAK31 PAJN 311100
TAFAJN
TAF
PAJN 311120Z 3112/0112 10012KT P6SM -SHRA FEW015 BKN040 OVC060
     FM312100 11015KT P6SM -SHRA BKN030 OVC050
     FM010900 10017KT P6SM -RA BKN025 OVC050=

USA.gov is the U.S. government's official web portal to all federal, state and local government web resources and services.